sensor_id;sensor_type;location;lat;lon;timestamp;pressure;altitude;pressure_sealevel;temperature
47484;BMP280;54076;50.322;18.650;2023-04-03T00:04:59;98370.69;;;-2.16
47484;BMP280;54076;50.322;18.650;2023-04-03T00:10:00;98371.78;;;-2.15
47484;BMP280;54076;50.322;18.650;2023-04-03T00:15:01;98363.67;;;-2.32
47484;BMP280;54076;50.322;18.650;2023-04-03T00:20:04;98367.73;;;-2.17
47484;BMP280;54076;50.322;18.650;2023-04-03T00:25:06;98375.02;;;-2.28
47484;BMP280;54076;50.322;18.650;2023-04-03T00:30:11;98369.34;;;-2.22
47484;BMP280;54076;50.322;18.650;2023-04-03T00:35:13;98376.39;;;-2.23
47484;BMP280;54076;50.322;18.650;2023-04-03T00:40:16;98372.23;;;-2.29
47484;BMP280;54076;50.322;18.650;2023-04-03T00:50:19;98375.55;;;-1.98
47484;BMP280;54076;50.322;18.650;2023-04-03T00:55:20;98372.96;;;-2.08
47484;BMP280;54076;50.322;18.650;2023-04-03T01:00:22;98373.52;;;-2.15
47484;BMP280;54076;50.322;18.650;2023-04-03T01:05:24;98373.92;;;-1.99
47484;BMP280;54076;50.322;18.650;2023-04-03T01:10:25;98376.73;;;-2.05
47484;BMP280;54076;50.322;18.650;2023-04-03T01:15:27;98381.22;;;-2.25
47484;BMP280;54076;50.322;18.650;2023-04-03T01:26:16;98386.50;;;-2.17
47484;BMP280;54076;50.322;18.650;2023-04-03T01:36:36;98389.25;;;-2.10
47484;BMP280;54076;50.322;18.650;2023-04-03T01:41:37;98398.16;;;-2.27
47484;BMP280;54076;50.322;18.650;2023-04-03T01:46:38;98403.19;;;-2.19
47484;BMP280;54076;50.322;18.650;2023-04-03T01:51:40;98403.19;;;-2.20
47484;BMP280;54076;50.322;18.650;2023-04-03T01:56:41;98402.81;;;-2.41
47484;BMP280;54076;50.322;18.650;2023-04-03T02:01:42;98404.97;;;-2.44
47484;BMP280;54076;50.322;18.650;2023-04-03T02:06:45;98403.52;;;-2.54
47484;BMP280;54076;50.322;18.650;2023-04-03T02:11:46;98410.73;;;-2.51
47484;BMP280;54076;50.322;18.650;2023-04-03T02:16:47;98415.15;;;-2.58
47484;BMP280;54076;50.322;18.650;2023-04-03T02:21:48;98416.69;;;-2.60
47484;BMP280;54076;50.322;18.650;2023-04-03T02:26:50;98416.95;;;-2.71
47484;BMP280;54076;50.322;18.650;2023-04-03T02:31:51;98420.32;;;-2.68
47484;BMP280;54076;50.322;18.650;2023-04-03T02:36:52;98418.21;;;-2.86
47484;BMP280;54076;50.322;18.650;2023-04-03T02:41:53;98422.63;;;-2.98
47484;BMP280;54076;50.322;18.650;2023-04-03T02:46:54;98421.98;;;-3.13
47484;BMP280;54076;50.322;18.650;2023-04-03T02:51:55;98424.09;;;-3.29
47484;BMP280;54076;50.322;18.650;2023-04-03T02:56:57;98427.08;;;-3.39
47484;BMP280;54076;50.322;18.650;2023-04-03T03:01:58;98428.02;;;-3.48
47484;BMP280;54076;50.322;18.650;2023-04-03T03:06:59;98432.97;;;-3.60
47484;BMP280;54076;50.322;18.650;2023-04-03T03:12:01;98429.58;;;-3.59
47484;BMP280;54076;50.322;18.650;2023-04-03T03:17:02;98431.60;;;-3.69
47484;BMP280;54076;50.322;18.650;2023-04-03T03:22:03;98435.85;;;-3.76
47484;BMP280;54076;50.322;18.650;2023-04-03T03:27:04;98439.13;;;-3.93
47484;BMP280;54076;50.322;18.650;2023-04-03T03:32:05;98449.14;;;-4.07
47484;BMP280;54076;50.322;18.650;2023-04-03T03:37:06;98453.05;;;-4.15
47484;BMP280;54076;50.322;18.650;2023-04-03T03:42:07;98448.39;;;-4.26
47484;BMP280;54076;50.322;18.650;2023-04-03T03:47:08;98443.58;;;-4.40
47484;BMP280;54076;50.322;18.650;2023-04-03T03:52:11;98450.88;;;-4.48
47484;BMP280;54076;50.322;18.650;2023-04-03T03:57:12;98452.45;;;-4.57
47484;BMP280;54076;50.322;18.650;2023-04-03T04:02:13;98451.05;;;-4.53
47484;BMP280;54076;50.322;18.650;2023-04-03T04:07:14;98454.34;;;-4.63
47484;BMP280;54076;50.322;18.650;2023-04-03T04:12:15;98456.80;;;-4.56
47484;BMP280;54076;50.322;18.650;2023-04-03T04:17:16;98459.04;;;-4.56
47484;BMP280;54076;50.322;18.650;2023-04-03T04:22:18;98462.81;;;-4.54
47484;BMP280;54076;50.322;18.650;2023-04-03T04:27:19;98465.88;;;-4.58
47484;BMP280;54076;50.322;18.650;2023-04-03T04:32:20;98467.12;;;-4.69
47484;BMP280;54076;50.322;18.650;2023-04-03T04:37:21;98472.25;;;-4.73
47484;BMP280;54076;50.322;18.650;2023-04-03T04:42:22;98476.73;;;-4.68
47484;BMP280;54076;50.322;18.650;2023-04-03T04:47:23;98483.58;;;-4.71
47484;BMP280;54076;50.322;18.650;2023-04-03T04:52:24;98488.99;;;-4.77
47484;BMP280;54076;50.322;18.650;2023-04-03T04:57:25;98493.91;;;-4.79
47484;BMP280;54076;50.322;18.650;2023-04-03T05:02:26;98499.61;;;-4.73
47484;BMP280;54076;50.322;18.650;2023-04-03T05:07:28;98503.21;;;-4.70
47484;BMP280;54076;50.322;18.650;2023-04-03T05:12:29;98509.04;;;-4.87
47484;BMP280;54076;50.322;18.650;2023-04-03T05:17:30;98515.55;;;-4.76
47484;BMP280;54076;50.322;18.650;2023-04-03T05:22:31;98517.05;;;-4.85
47484;BMP280;54076;50.322;18.650;2023-04-03T05:27:33;98526.52;;;-4.81
47484;BMP280;54076;50.322;18.650;2023-04-03T05:32:34;98532.08;;;-4.80
47484;BMP280;54076;50.322;18.650;2023-04-03T05:37:35;98530.20;;;-4.81
47484;BMP280;54076;50.322;18.650;2023-04-03T05:42:37;98533.55;;;-4.74
47484;BMP280;54076;50.322;18.650;2023-04-03T05:47:38;98535.97;;;-4.71
47484;BMP280;54076;50.322;18.650;2023-04-03T05:52:44;98537.71;;;-4.76
47484;BMP280;54076;50.322;18.650;2023-04-03T05:57:45;98539.56;;;-4.62
47484;BMP280;54076;50.322;18.650;2023-04-03T06:02:46;98544.79;;;-4.35
47484;BMP280;54076;50.322;18.650;2023-04-03T06:07:47;98545.69;;;-4.20
47484;BMP280;54076;50.322;18.650;2023-04-03T06:12:50;98549.90;;;-4.22
47484;BMP280;54076;50.322;18.650;2023-04-03T06:17:52;98554.71;;;-4.19
47484;BMP280;54076;50.322;18.650;2023-04-03T06:22:53;98560.00;;;-4.37
47484;BMP280;54076;50.322;18.650;2023-04-03T06:27:54;98566.48;;;-4.28
47484;BMP280;54076;50.322;18.650;2023-04-03T06:32:56;98572.73;;;-4.09
47484;BMP280;54076;50.322;18.650;2023-04-03T06:37:57;98577.55;;;-4.01
47484;BMP280;54076;50.322;18.650;2023-04-03T06:42:58;98580.08;;;-3.99
47484;BMP280;54076;50.322;18.650;2023-04-03T06:47:59;98582.48;;;-3.68
47484;BMP280;54076;50.322;18.650;2023-04-03T06:53:00;98587.08;;;-3.59
47484;BMP280;54076;50.322;18.650;2023-04-03T06:58:02;98593.92;;;-3.39
47484;BMP280;54076;50.322;18.650;2023-04-03T07:03:04;98598.88;;;-3.35
47484;BMP280;54076;50.322;18.650;2023-04-03T07:08:05;98600.57;;;-2.81
47484;BMP280;54076;50.322;18.650;2023-04-03T07:13:07;98603.84;;;-2.66
47484;BMP280;54076;50.322;18.650;2023-04-03T07:18:08;98612.16;;;-2.40
47484;BMP280;54076;50.322;18.650;2023-04-03T07:23:09;98605.02;;;-2.51
47484;BMP280;54076;50.322;18.650;2023-04-03T07:28:12;98609.96;;;-2.20
47484;BMP280;54076;50.322;18.650;2023-04-03T07:33:15;98612.52;;;-2.23
47484;BMP280;54076;50.322;18.650;2023-04-03T07:38:16;98618.39;;;-2.11
47484;BMP280;54076;50.322;18.650;2023-04-03T07:43:19;98623.17;;;-1.55
47484;BMP280;54076;50.322;18.650;2023-04-03T07:48:26;98621.23;;;-2.26
47484;BMP280;54076;50.322;18.650;2023-04-03T07:53:28;98623.05;;;-1.67
47484;BMP280;54076;50.322;18.650;2023-04-03T07:58:30;98612.25;;;-2.22
47484;BMP280;54076;50.322;18.650;2023-04-03T08:03:31;98611.67;;;-2.43
47484;BMP280;54076;50.322;18.650;2023-04-03T08:08:33;98618.81;;;-1.87
47484;BMP280;54076;50.322;18.650;2023-04-03T08:13:34;98617.43;;;-1.98
47484;BMP280;54076;50.322;18.650;2023-04-03T08:18:37;98619.67;;;-1.53
47484;BMP280;54076;50.322;18.650;2023-04-03T08:23:41;98611.22;;;-1.64
47484;BMP280;54076;50.322;18.650;2023-04-03T08:28:43;98617.80;;;-1.25
47484;BMP280;54076;50.322;18.650;2023-04-03T08:33:45;98615.77;;;-0.61
47484;BMP280;54076;50.322;18.650;2023-04-03T08:38:46;98621.73;;;-1.00
47484;BMP280;54076;50.322;18.650;2023-04-03T08:44:13;98623.42;;;-0.98
47484;BMP280;54076;50.322;18.650;2023-04-03T08:49:43;98625.67;;;-1.39
47484;BMP280;54076;50.322;18.650;2023-04-03T08:54:55;98617.29;;;-1.08
47484;BMP280;54076;50.322;18.650;2023-04-03T09:00:01;98617.20;;;-1.14
47484;BMP280;54076;50.322;18.650;2023-04-03T09:05:15;98613.62;;;-0.63
47484;BMP280;54076;50.322;18.650;2023-04-03T09:10:28;98614.85;;;-0.55
47484;BMP280;54076;50.322;18.650;2023-04-03T09:15:29;98617.50;;;-0.73
47484;BMP280;54076;50.322;18.650;2023-04-03T09:21:08;98608.83;;;-0.16
47484;BMP280;54076;50.322;18.650;2023-04-03T09:26:31;98619.84;;;-0.10
47484;BMP280;54076;50.322;18.650;2023-04-03T09:31:39;98625.11;;;-0.41
47484;BMP280;54076;50.322;18.650;2023-04-03T09:36:45;98631.23;;;-0.88
47484;BMP280;54076;50.322;18.650;2023-04-03T09:42:00;98627.55;;;-0.93
47484;BMP280;54076;50.322;18.650;2023-04-03T09:47:30;98629.95;;;-0.55
47484;BMP280;54076;50.322;18.650;2023-04-03T09:52:33;98633.73;;;-0.38
47484;BMP280;54076;50.322;18.650;2023-04-03T09:57:35;98624.23;;;-0.09
47484;BMP280;54076;50.322;18.650;2023-04-03T10:02:40;98630.69;;;0.00
47484;BMP280;54076;50.322;18.650;2023-04-03T10:07:43;98636.34;;;0.26
47484;BMP280;54076;50.322;18.650;2023-04-03T10:12:44;98631.73;;;0.08
47484;BMP280;54076;50.322;18.650;2023-04-03T10:18:02;98631.48;;;0.08
47484;BMP280;54076;50.322;18.650;2023-04-03T10:23:17;98628.67;;;0.26
47484;BMP280;54076;50.322;18.650;2023-04-03T10:34:00;98624.90;;;0.38
47484;BMP280;54076;50.322;18.650;2023-04-03T10:51:27;98643.73;;;2.85
47484;BMP280;54076;50.322;18.650;2023-04-03T11:01:42;98642.27;;;4.95
47484;BMP280;54076;50.322;18.650;2023-04-03T11:07:14;98653.92;;;4.02
47484;BMP280;54076;50.322;18.650;2023-04-03T11:12:43;98665.17;;;3.90
47484;BMP280;54076;50.322;18.650;2023-04-03T11:17:55;98644.80;;;4.02
47484;BMP280;54076;50.322;18.650;2023-04-03T11:23:24;98639.33;;;4.00
47484;BMP280;54076;50.322;18.650;2023-04-03T11:28:26;98628.49;;;2.16
47484;BMP280;54076;50.322;18.650;2023-04-03T11:38:58;98628.52;;;3.94
47484;BMP280;54076;50.322;18.650;2023-04-03T11:44:05;98658.95;;;4.22
47484;BMP280;54076;50.322;18.650;2023-04-03T11:54:48;98620.06;;;4.16
47484;BMP280;54076;50.322;18.650;2023-04-03T11:59:49;98648.52;;;3.92
47484;BMP280;54076;50.322;18.650;2023-04-03T12:05:29;98610.80;;;2.93
47484;BMP280;54076;50.322;18.650;2023-04-03T12:10:30;98642.85;;;3.77
47484;BMP280;54076;50.322;18.650;2023-04-03T12:15:48;98632.03;;;4.84
47484;BMP280;54076;50.322;18.650;2023-04-03T12:20:56;98607.49;;;2.98
47484;BMP280;54076;50.322;18.650;2023-04-03T12:26:22;98621.92;;;3.09
47484;BMP280;54076;50.322;18.650;2023-04-03T12:31:42;98633.32;;;4.77
47484;BMP280;54076;50.322;18.650;2023-04-03T12:37:21;98607.55;;;4.43
47484;BMP280;54076;50.322;18.650;2023-04-03T12:47:45;98601.79;;;2.82
47484;BMP280;54076;50.322;18.650;2023-04-03T12:53:18;98618.31;;;5.09
47484;BMP280;54076;50.322;18.650;2023-04-03T13:03:26;98598.52;;;4.21
47484;BMP280;54076;50.322;18.650;2023-04-03T13:08:30;98597.70;;;3.77
47484;BMP280;54076;50.322;18.650;2023-04-03T13:13:31;98596.38;;;3.07
47484;BMP280;54076;50.322;18.650;2023-04-03T13:18:35;98594.82;;;3.24
47484;BMP280;54076;50.322;18.650;2023-04-03T13:23:40;98590.52;;;3.00
47484;BMP280;54076;50.322;18.650;2023-04-03T13:28:43;98592.55;;;3.62
47484;BMP280;54076;50.322;18.650;2023-04-03T13:34:04;98587.65;;;3.18
47484;BMP280;54076;50.322;18.650;2023-04-03T13:50:03;98596.35;;;2.74
47484;BMP280;54076;50.322;18.650;2023-04-03T13:55:35;98595.00;;;2.20
47484;BMP280;54076;50.322;18.650;2023-04-03T14:00:50;98589.73;;;2.60
47484;BMP280;54076;50.322;18.650;2023-04-03T14:05:53;98590.27;;;2.33
47484;BMP280;54076;50.322;18.650;2023-04-03T14:10:54;98592.23;;;1.70
47484;BMP280;54076;50.322;18.650;2023-04-03T14:15:55;98591.90;;;1.85
47484;BMP280;54076;50.322;18.650;2023-04-03T14:20:57;98589.36;;;1.94
47484;BMP280;54076;50.322;18.650;2023-04-03T14:25:58;98580.03;;;1.67
47484;BMP280;54076;50.322;18.650;2023-04-03T14:31:01;98583.48;;;1.68
47484;BMP280;54076;50.322;18.650;2023-04-03T14:36:12;98581.17;;;1.68
47484;BMP280;54076;50.322;18.650;2023-04-03T14:41:17;98583.13;;;1.42
47484;BMP280;54076;50.322;18.650;2023-04-03T14:46:33;98582.66;;;1.40
47484;BMP280;54076;50.322;18.650;2023-04-03T14:51:35;98583.48;;;1.14
47484;BMP280;54076;50.322;18.650;2023-04-03T14:56:39;98592.77;;;0.93
47484;BMP280;54076;50.322;18.650;2023-04-03T15:01:40;98598.77;;;0.86
47484;BMP280;54076;50.322;18.650;2023-04-03T15:06:42;98600.65;;;0.91
47484;BMP280;54076;50.322;18.650;2023-04-03T15:11:43;98601.38;;;0.72
47484;BMP280;54076;50.322;18.650;2023-04-03T15:16:44;98611.04;;;0.60
47484;BMP280;54076;50.322;18.650;2023-04-03T15:21:45;98602.19;;;0.50
47484;BMP280;54076;50.322;18.650;2023-04-03T15:26:47;98600.79;;;0.48
47484;BMP280;54076;50.322;18.650;2023-04-03T15:31:48;98608.38;;;0.41
47484;BMP280;54076;50.322;18.650;2023-04-03T15:36:50;98608.42;;;0.30
47484;BMP280;54076;50.322;18.650;2023-04-03T15:41:54;98606.83;;;0.22
47484;BMP280;54076;50.322;18.650;2023-04-03T15:46:55;98617.30;;;0.14
47484;BMP280;54076;50.322;18.650;2023-04-03T15:51:56;98621.02;;;0.10
47484;BMP280;54076;50.322;18.650;2023-04-03T15:56:57;98616.25;;;0.12
47484;BMP280;54076;50.322;18.650;2023-04-03T16:01:59;98618.27;;;0.19
47484;BMP280;54076;50.322;18.650;2023-04-03T16:07:03;98614.74;;;-0.07
47484;BMP280;54076;50.322;18.650;2023-04-03T16:12:04;98613.59;;;-0.09
47484;BMP280;54076;50.322;18.650;2023-04-03T16:17:06;98621.08;;;-0.15
47484;BMP280;54076;50.322;18.650;2023-04-03T16:22:07;98620.87;;;-0.14
47484;BMP280;54076;50.322;18.650;2023-04-03T16:27:08;98619.83;;;-0.17
47484;BMP280;54076;50.322;18.650;2023-04-03T16:32:09;98631.42;;;-0.20
47484;BMP280;54076;50.322;18.650;2023-04-03T16:37:10;98633.63;;;-0.34
47484;BMP280;54076;50.322;18.650;2023-04-03T16:42:11;98631.81;;;-0.43
47484;BMP280;54076;50.322;18.650;2023-04-03T16:47:12;98630.63;;;-0.59
47484;BMP280;54076;50.322;18.650;2023-04-03T16:52:14;98634.87;;;-0.73
47484;BMP280;54076;50.322;18.650;2023-04-03T16:57:15;98640.63;;;-0.70
47484;BMP280;54076;50.322;18.650;2023-04-03T17:02:17;98645.95;;;-0.65
47484;BMP280;54076;50.322;18.650;2023-04-03T17:07:20;98646.96;;;-0.70
47484;BMP280;54076;50.322;18.650;2023-04-03T17:12:22;98650.57;;;-0.67
47484;BMP280;54076;50.322;18.650;2023-04-03T17:17:24;98657.72;;;-0.67
47484;BMP280;54076;50.322;18.650;2023-04-03T17:22:28;98657.02;;;-0.78
47484;BMP280;54076;50.322;18.650;2023-04-03T17:27:29;98664.21;;;-0.85
47484;BMP280;54076;50.322;18.650;2023-04-03T17:32:30;98661.97;;;-0.95
47484;BMP280;54076;50.322;18.650;2023-04-03T17:37:32;98667.80;;;-0.95
47484;BMP280;54076;50.322;18.650;2023-04-03T17:42:33;98674.02;;;-0.97
47484;BMP280;54076;50.322;18.650;2023-04-03T17:47:34;98676.68;;;-0.96
47484;BMP280;54076;50.322;18.650;2023-04-03T17:52:35;98676.98;;;-1.03
47484;BMP280;54076;50.322;18.650;2023-04-03T17:57:36;98678.98;;;-1.10
47484;BMP280;54076;50.322;18.650;2023-04-03T18:02:38;98681.38;;;-1.04
47484;BMP280;54076;50.322;18.650;2023-04-03T18:07:39;98679.70;;;-1.31
47484;BMP280;54076;50.322;18.650;2023-04-03T18:12:40;98688.70;;;-1.25
47484;BMP280;54076;50.322;18.650;2023-04-03T18:17:42;98681.63;;;-1.37
47484;BMP280;54076;50.322;18.650;2023-04-03T18:22:43;98687.54;;;-1.34
47484;BMP280;54076;50.322;18.650;2023-04-03T18:27:46;98694.24;;;-1.41
47484;BMP280;54076;50.322;18.650;2023-04-03T18:32:47;98694.80;;;-1.38
47484;BMP280;54076;50.322;18.650;2023-04-03T18:37:49;98696.38;;;-1.52
47484;BMP280;54076;50.322;18.650;2023-04-03T18:42:50;98695.26;;;-1.51
47484;BMP280;54076;50.322;18.650;2023-04-03T18:47:51;98698.05;;;-1.44
47484;BMP280;54076;50.322;18.650;2023-04-03T18:52:52;98699.80;;;-1.50
47484;BMP280;54076;50.322;18.650;2023-04-03T18:57:54;98701.97;;;-1.63
47484;BMP280;54076;50.322;18.650;2023-04-03T19:02:55;98701.89;;;-1.72
47484;BMP280;54076;50.322;18.650;2023-04-03T19:07:56;98700.82;;;-1.82
47484;BMP280;54076;50.322;18.650;2023-04-03T19:12:57;98690.83;;;-1.88
47484;BMP280;54076;50.322;18.650;2023-04-03T19:17:59;98691.17;;;-1.95
47484;BMP280;54076;50.322;18.650;2023-04-03T19:23:00;98691.85;;;-2.04
47484;BMP280;54076;50.322;18.650;2023-04-03T19:28:01;98692.80;;;-1.98
47484;BMP280;54076;50.322;18.650;2023-04-03T19:33:02;98697.89;;;-2.20
47484;BMP280;54076;50.322;18.650;2023-04-03T19:38:03;98698.14;;;-2.25
47484;BMP280;54076;50.322;18.650;2023-04-03T19:43:04;98700.69;;;-2.13
47484;BMP280;54076;50.322;18.650;2023-04-03T19:48:06;98695.27;;;-2.11
47484;BMP280;54076;50.322;18.650;2023-04-03T19:53:07;98696.23;;;-2.06
47484;BMP280;54076;50.322;18.650;2023-04-03T19:58:11;98693.23;;;-2.14
47484;BMP280;54076;50.322;18.650;2023-04-03T20:03:12;98696.41;;;-2.11
47484;BMP280;54076;50.322;18.650;2023-04-03T20:08:13;98693.05;;;-2.31
47484;BMP280;54076;50.322;18.650;2023-04-03T20:13:14;98699.29;;;-2.36
47484;BMP280;54076;50.322;18.650;2023-04-03T20:18:19;98703.14;;;-2.29
47484;BMP280;54076;50.322;18.650;2023-04-03T20:23:21;98703.33;;;-2.32
47484;BMP280;54076;50.322;18.650;2023-04-03T20:28:23;98698.55;;;-2.50
47484;BMP280;54076;50.322;18.650;2023-04-03T20:33:24;98692.64;;;-2.54
47484;BMP280;54076;50.322;18.650;2023-04-03T20:38:28;98689.09;;;-2.62
47484;BMP280;54076;50.322;18.650;2023-04-03T20:43:30;98685.66;;;-2.54
47484;BMP280;54076;50.322;18.650;2023-04-03T20:48:31;98686.88;;;-2.72
47484;BMP280;54076;50.322;18.650;2023-04-03T20:53:32;98690.98;;;-2.65
47484;BMP280;54076;50.322;18.650;2023-04-03T20:58:36;98697.62;;;-2.70
47484;BMP280;54076;50.322;18.650;2023-04-03T21:03:39;98708.02;;;-2.65
47484;BMP280;54076;50.322;18.650;2023-04-03T21:20:35;98712.60;;;-3.03
47484;BMP280;54076;50.322;18.650;2023-04-03T21:25:37;98717.71;;;-3.06
47484;BMP280;54076;50.322;18.650;2023-04-03T21:30:38;98724.21;;;-3.05
47484;BMP280;54076;50.322;18.650;2023-04-03T21:35:40;98723.59;;;-3.05
47484;BMP280;54076;50.322;18.650;2023-04-03T21:40:41;98722.46;;;-3.11
47484;BMP280;54076;50.322;18.650;2023-04-03T21:45:46;98722.59;;;-3.12
47484;BMP280;54076;50.322;18.650;2023-04-03T21:50:49;98720.71;;;-3.21
47484;BMP280;54076;50.322;18.650;2023-04-03T21:55:57;98719.84;;;-3.22
47484;BMP280;54076;50.322;18.650;2023-04-03T22:01:10;98706.77;;;-3.33
47484;BMP280;54076;50.322;18.650;2023-04-03T22:06:15;98699.15;;;-3.33
47484;BMP280;54076;50.322;18.650;2023-04-03T22:11:17;98704.70;;;-3.31
47484;BMP280;54076;50.322;18.650;2023-04-03T22:16:19;98698.83;;;-3.32
47484;BMP280;54076;50.322;18.650;2023-04-03T22:21:24;98701.75;;;-3.23
47484;BMP280;54076;50.322;18.650;2023-04-03T22:26:25;98700.54;;;-3.24
47484;BMP280;54076;50.322;18.650;2023-04-03T22:31:26;98694.88;;;-3.23
47484;BMP280;54076;50.322;18.650;2023-04-03T22:36:27;98697.84;;;-3.26
47484;BMP280;54076;50.322;18.650;2023-04-03T22:41:28;98688.04;;;-3.15
47484;BMP280;54076;50.322;18.650;2023-04-03T22:46:29;98690.39;;;-3.06
47484;BMP280;54076;50.322;18.650;2023-04-03T22:51:31;98691.05;;;-2.94
47484;BMP280;54076;50.322;18.650;2023-04-03T22:56:32;98681.67;;;-3.06
47484;BMP280;54076;50.322;18.650;2023-04-03T23:01:34;98677.09;;;-3.10
47484;BMP280;54076;50.322;18.650;2023-04-03T23:06:35;98675.73;;;-3.02
47484;BMP280;54076;50.322;18.650;2023-04-03T23:11:36;98665.48;;;-2.94
47484;BMP280;54076;50.322;18.650;2023-04-03T23:16:37;98658.25;;;-3.05
47484;BMP280;54076;50.322;18.650;2023-04-03T23:21:38;98649.88;;;-3.20
47484;BMP280;54076;50.322;18.650;2023-04-03T23:26:39;98642.97;;;-3.10
47484;BMP280;54076;50.322;18.650;2023-04-03T23:31:40;98635.52;;;-3.26
47484;BMP280;54076;50.322;18.650;2023-04-03T23:36:41;98635.96;;;-3.18
47484;BMP280;54076;50.322;18.650;2023-04-03T23:41:43;98634.87;;;-3.34
47484;BMP280;54076;50.322;18.650;2023-04-03T23:46:44;98623.70;;;-3.41
47484;BMP280;54076;50.322;18.650;2023-04-03T23:51:46;98627.71;;;-3.37
47484;BMP280;54076;50.322;18.650;2023-04-03T23:56:47;98615.35;;;-3.54
